Terminal Aerodrome Forecast
Issued by NWS Grand Forks, ND

Home | Current Version | Previous Version | Graphics & Text | Print | Product List | Glossary On
Versions: 1 2 3 4 5 6 7 8 9 10 11 12 13 14
000
FTUS43 KFGF 171100
TAFGFK
TAF
KGFK 171120Z 1712/1812 VRB06KT P6SM SCT250
     FM171400 01012KT P6SM SCT025
      TEMPO 1714/1718 BKN025
     FM172100 05008KT P6SM SCT250=

USA.gov is the U.S. government's official web portal to all federal, state and local government web resources and services.